createdAt,value
2018-05-04T00:00:24.770Z,1023.42
2018-05-04T00:01:33.602Z,1023.38
2018-05-04T00:02:42.436Z,1023.32
2018-05-04T00:03:51.543Z,1023.38
2018-05-04T00:05:00.522Z,1023.38
2018-05-04T00:06:09.360Z,1023.32
2018-05-04T00:07:18.188Z,1023.37
2018-05-04T00:08:27.021Z,1023.32
2018-05-04T00:09:36.132Z,1023.33
2018-05-04T00:10:45.517Z,1023.31
2018-05-04T00:11:54.346Z,1023.33
2018-05-04T00:13:03.178Z,1023.35
2018-05-04T00:14:12.287Z,1023.33
2018-05-04T00:15:21.116Z,1023.34
2018-05-04T00:16:30.052Z,1023.31
2018-05-04T00:17:38.877Z,1023.36
2018-05-04T00:18:47.707Z,1023.38
2018-05-04T00:19:56.535Z,1023.36
2018-05-04T00:21:05.641Z,1023.36
2018-05-04T00:22:14.472Z,1023.37
2018-05-04T00:23:23.582Z,1023.39
2018-05-04T00:24:32.413Z,1023.41
2018-05-04T00:25:41.243Z,1023.39
2018-05-04T00:26:50.075Z,1023.43
2018-05-04T00:27:59.007Z,1023.51
2018-05-04T00:29:07.837Z,1023.49
2018-05-04T00:30:16.667Z,1023.49
2018-05-04T00:31:25.498Z,1023.49
2018-05-04T00:32:34.330Z,1023.53
2018-05-04T00:33:43.436Z,1023.5
2018-05-04T00:34:52.271Z,1023.49
2018-05-04T00:36:01.103Z,1023.49
2018-05-04T00:37:09.934Z,1023.45
2018-05-04T00:38:19.044Z,1023.47
2018-05-04T00:39:27.926Z,1023.44
2018-05-04T00:40:37.031Z,1023.45
2018-05-04T00:41:46.139Z,1023.44
2018-05-04T00:42:54.970Z,1023.47
2018-05-04T00:44:03.800Z,1023.5
2018-05-04T00:45:12.963Z,1023.52
2018-05-04T00:46:22.072Z,1023.48
2018-05-04T00:47:30.903Z,1023.51
2018-05-04T00:48:40.008Z,1023.48
2018-05-04T00:49:49.118Z,1023.48
2018-05-04T00:50:58.047Z,1023.5
2018-05-04T00:52:06.876Z,1023.48
2018-05-04T00:53:15.703Z,1023.49
2018-05-04T00:54:24.537Z,1023.54
2018-05-04T00:55:33.985Z,1023.6
2018-05-04T00:56:42.964Z,1023.63
2018-05-04T00:57:51.794Z,1023.64
2018-05-04T00:59:00.623Z,1023.65
2018-05-04T01:00:09.457Z,1023.67
2018-05-04T01:01:18.281Z,1023.68
2018-05-04T01:02:27.259Z,1023.67
2018-05-04T01:03:36.098Z,1023.68
2018-05-04T01:04:44.939Z,1023.68
2018-05-04T01:05:54.050Z,1023.69
2018-05-04T01:07:03.154Z,1023.7
2018-05-04T01:08:11.985Z,1023.7
2018-05-04T01:09:20.812Z,1023.72
2018-05-04T01:10:29.923Z,1023.72
2018-05-04T01:11:39.310Z,1023.78
2018-05-04T01:12:48.699Z,1023.81
2018-05-04T01:13:57.625Z,1023.85
2018-05-04T01:15:06.729Z,1023.88
2018-05-04T01:16:15.842Z,1023.86
2018-05-04T01:17:24.671Z,1023.9
2018-05-04T01:18:33.772Z,1023.95
2018-05-04T01:19:42.599Z,1023.99
2018-05-04T01:20:51.432Z,1023.91
2018-05-04T01:22:00.263Z,1023.91
2018-05-04T01:23:09.091Z,1023.89
2018-05-04T01:24:17.922Z,1023.89
2018-05-04T01:25:27.125Z,1023.88
2018-05-04T01:26:36.229Z,1023.89
2018-05-04T01:27:45.059Z,1023.94
2018-05-04T01:28:53.887Z,1023.9
2018-05-04T01:30:02.717Z,1023.9
2018-05-04T01:31:11.549Z,1023.93
2018-05-04T01:32:20.381Z,1023.92
2018-05-04T01:33:29.483Z,1023.95
2018-05-04T01:34:38.589Z,1024
2018-05-04T01:35:47.672Z,1024.01
2018-05-04T01:36:56.775Z,1024.03
2018-05-04T01:38:05.608Z,1024
2018-05-04T01:39:14.438Z,1024.04
2018-05-04T01:40:23.269Z,1024.09
2018-05-04T01:41:32.376Z,1024.07
2018-05-04T01:42:41.205Z,1024.11
2018-05-04T01:43:50.032Z,1024.11
2018-05-04T01:44:58.863Z,1024.12
2018-05-04T01:46:07.695Z,1024.14
2018-05-04T01:47:16.521Z,1024.13
2018-05-04T01:48:25.351Z,1024.12
2018-05-04T01:49:34.183Z,1024.15
2018-05-04T01:50:43.012Z,1024.15
2018-05-04T01:51:51.844Z,1024.09
2018-05-04T01:53:00.676Z,1024.11
2018-05-04T01:54:09.654Z,1024.14
2018-05-04T01:55:18.480Z,1024.08
2018-05-04T01:56:27.318Z,1024.17
2018-05-04T01:57:36.145Z,1024.14
2018-05-04T01:58:45.249Z,1024.15
2018-05-04T01:59:54.379Z,1024.1
2018-05-04T02:01:03.210Z,1024.13
2018-05-04T02:02:12.317Z,1024.11
2018-05-04T02:03:21.420Z,1024.15
2018-05-04T02:04:30.250Z,1024.19
2018-05-04T02:05:39.380Z,1024.15
2018-05-04T02:06:48.210Z,1024.23
2018-05-04T02:07:57.040Z,1024.2
2018-05-04T02:09:05.871Z,1024.17
2018-05-04T02:10:14.980Z,1024.15
2018-05-04T02:11:23.913Z,1024.12
2018-05-04T02:12:32.743Z,1024.14
2018-05-04T02:13:41.863Z,1024.13
2018-05-04T02:14:50.684Z,1024.12
2018-05-04T02:15:59.512Z,1024.13
2018-05-04T02:17:08.775Z,1024.2
2018-05-04T02:18:17.605Z,1024.26
2018-05-04T02:19:26.706Z,1024.27
2018-05-04T02:20:35.537Z,1024.22
2018-05-04T02:21:44.644Z,1024.31
2018-05-04T02:22:53.575Z,1024.29
2018-05-04T02:24:02.414Z,1024.26
2018-05-04T02:25:11.243Z,1024.25
2018-05-04T02:26:20.173Z,1024.23
2018-05-04T02:27:29.008Z,1024.18
2018-05-04T02:28:38.040Z,1024.18
2018-05-04T02:29:46.865Z,1024.2
2018-05-04T02:30:55.978Z,1024.18
2018-05-04T02:32:05.088Z,1024.19
2018-05-04T02:33:13.921Z,1024.2
2018-05-04T02:34:23.151Z,1024.24
2018-05-04T02:35:31.980Z,1024.19
2018-05-04T02:36:40.822Z,1024.18
2018-05-04T02:37:50.207Z,1024.18
2018-05-04T02:38:59.313Z,1024.13
2018-05-04T02:40:08.245Z,1024.13
2018-05-04T02:41:17.348Z,1024.13
2018-05-04T02:42:26.196Z,1024.12
2018-05-04T02:43:35.026Z,1024.09
2018-05-04T02:44:44.427Z,1024.1
2018-05-04T02:45:53.875Z,1024.08
2018-05-04T02:47:02.986Z,1024.06
2018-05-04T02:48:12.085Z,1024.03
2018-05-04T02:49:20.914Z,1024.06
2018-05-04T02:50:29.744Z,1024.04
2018-05-04T02:51:39.110Z,1023.97
2018-05-04T02:52:47.939Z,1024
2018-05-04T02:53:57.347Z,1023.96
2018-05-04T02:55:06.441Z,1023.98
2018-05-04T02:56:15.544Z,1023.96
2018-05-04T02:57:25.586Z,1023.97
2018-05-04T02:58:34.689Z,1024.04
2018-05-04T02:59:44.075Z,1024.03
2018-05-04T03:00:53.186Z,1024.04
2018-05-04T03:02:02.016Z,1024.05
2018-05-04T03:03:11.280Z,1024.03
2018-05-04T03:04:20.111Z,1024.01
2018-05-04T03:05:28.946Z,1024.03
2018-05-04T03:06:38.333Z,1024.07
2018-05-04T03:07:47.433Z,1024.04
2018-05-04T03:08:56.655Z,1024.06
2018-05-04T03:10:05.510Z,1024.11
2018-05-04T03:11:14.315Z,1024.08
2018-05-04T03:12:23.151Z,1024.07
2018-05-04T03:13:32.261Z,1024.04
2018-05-04T03:14:41.619Z,1024.06
2018-05-04T03:15:50.734Z,1024.03
2018-05-04T03:16:59.559Z,1024
2018-05-04T03:18:08.388Z,1024.05
2018-05-04T03:19:17.213Z,1024.04
2018-05-04T03:20:26.047Z,1024.08
2018-05-04T03:21:34.876Z,1024.07
2018-05-04T03:22:43.704Z,1024.07
2018-05-04T03:23:52.535Z,1024.09
2018-05-04T03:25:01.368Z,1024.08
2018-05-04T03:26:10.346Z,1024.08
2018-05-04T03:27:19.174Z,1024.07
2018-05-04T03:28:28.005Z,1024.06
2018-05-04T03:29:36.829Z,1024.04
2018-05-04T03:30:45.659Z,1024.02
2018-05-04T03:31:55.127Z,1024.01
2018-05-04T03:33:04.232Z,1024.08
2018-05-04T03:34:13.061Z,1024.05
2018-05-04T03:35:21.889Z,1024.06
2018-05-04T03:36:30.717Z,1024.06
2018-05-04T03:37:40.025Z,1024.06
2018-05-04T03:38:48.851Z,1024.04
2018-05-04T03:39:57.678Z,1024.06
2018-05-04T03:41:06.506Z,1024.07
2018-05-04T03:42:15.617Z,1024.02
2018-05-04T03:43:24.821Z,1024.06
2018-05-04T03:44:33.922Z,1024.08
2018-05-04T03:45:42.752Z,1024.1
2018-05-04T03:46:51.866Z,1024.06
2018-05-04T03:48:00.985Z,1024.04
2018-05-04T03:49:09.865Z,1024.1
2018-05-04T03:50:18.691Z,1024.11
2018-05-04T03:51:27.518Z,1024.17
2018-05-04T03:52:36.352Z,1024.13
2018-05-04T03:53:45.178Z,1024.19
2018-05-04T03:54:54.105Z,1024.22
2018-05-04T03:56:02.934Z,1024.25
2018-05-04T03:57:11.758Z,1024.27
2018-05-04T03:58:20.587Z,1024.31
2018-05-04T03:59:29.416Z,1024.32
2018-05-04T04:00:38.883Z,1024.31
2018-05-04T04:01:47.705Z,1024.31
2018-05-04T04:02:56.807Z,1024.32
2018-05-04T04:04:05.638Z,1024.34
2018-05-04T04:05:14.464Z,1024.29
2018-05-04T04:06:23.626Z,1024.29
2018-05-04T04:07:32.459Z,1024.32
2018-05-04T04:08:41.289Z,1024.35
2018-05-04T04:09:50.117Z,1024.35
2018-05-04T04:10:59.222Z,1024.37
2018-05-04T04:12:08.331Z,1024.37
2018-05-04T04:13:17.156Z,1024.39
2018-05-04T04:14:26.261Z,1024.46
2018-05-04T04:15:35.092Z,1024.51
2018-05-04T04:16:43.918Z,1024.47
2018-05-04T04:17:52.905Z,1024.5
2018-05-04T04:19:01.987Z,1024.55
2018-05-04T04:20:11.103Z,1024.58
2018-05-04T04:21:20.040Z,1024.61
2018-05-04T04:22:29.145Z,1024.59
2018-05-04T04:23:37.979Z,1024.61
2018-05-04T04:24:47.081Z,1024.63
2018-05-04T04:25:55.909Z,1024.63
2018-05-04T04:27:05.290Z,1024.65
2018-05-04T04:28:14.170Z,1024.64
2018-05-04T04:29:22.944Z,1024.62
2018-05-04T04:30:32.052Z,1024.64
2018-05-04T04:31:40.881Z,1024.63
2018-05-04T04:32:49.711Z,1024.64
2018-05-04T04:33:58.537Z,1024.69
2018-05-04T04:35:07.370Z,1024.74
2018-05-04T04:36:16.199Z,1024.7
2018-05-04T04:37:25.033Z,1024.71
2018-05-04T04:38:33.858Z,1024.74
2018-05-04T04:39:42.692Z,1024.77
2018-05-04T04:40:51.793Z,1024.74
2018-05-04T04:42:00.621Z,1024.73
2018-05-04T04:43:09.448Z,1024.8
2018-05-04T04:44:18.279Z,1024.84
2018-05-04T04:45:27.190Z,1024.82
2018-05-04T04:46:36.237Z,1024.8
2018-05-04T04:47:45.342Z,1024.87
2018-05-04T04:48:54.597Z,1024.84
2018-05-04T04:50:04.059Z,1024.88
2018-05-04T04:51:13.870Z,1024.85
2018-05-04T04:52:22.987Z,1024.93
2018-05-04T04:53:31.817Z,1024.91
2018-05-04T04:54:40.745Z,1024.96
2018-05-04T04:55:49.576Z,1024.98
2018-05-04T04:56:58.405Z,1025
2018-05-04T04:58:07.514Z,1025.03
2018-05-04T04:59:16.342Z,1025.02
2018-05-04T05:00:25.450Z,1025.07
2018-05-04T05:01:34.279Z,1025.03
2018-05-04T05:02:43.109Z,1025.07
2018-05-04T05:03:51.939Z,1025.08
2018-05-04T05:05:00.769Z,1025.06
2018-05-04T05:06:09.598Z,1025.1
2018-05-04T05:07:18.428Z,1025.08
2018-05-04T05:08:27.536Z,1025.09
2018-05-04T05:09:36.360Z,1025.07
2018-05-04T05:10:45.191Z,1025.03
2018-05-04T05:11:54.302Z,1025.02
2018-05-04T05:13:03.407Z,1025.03
2018-05-04T05:14:12.243Z,1025.03
2018-05-04T05:15:21.071Z,1025.03
2018-05-04T05:16:29.906Z,1025.02
2018-05-04T05:17:39.009Z,1025.09
2018-05-04T05:18:48.117Z,1025.07
2018-05-04T05:19:56.945Z,1025.11
2018-05-04T05:21:05.777Z,1025.07
2018-05-04T05:22:14.605Z,1025.1
2018-05-04T05:23:23.710Z,1025.13
2018-05-04T05:24:32.541Z,1025.09
2018-05-04T05:25:41.375Z,1025.1
2018-05-04T05:26:50.480Z,1025.08
2018-05-04T05:27:59.307Z,1025.08
2018-05-04T05:29:08.139Z,1025.1
2018-05-04T05:30:17.020Z,1025.07
2018-05-04T05:31:26.203Z,1025.1
2018-05-04T05:32:35.309Z,1025.07
2018-05-04T05:33:44.413Z,1025.1
2018-05-04T05:34:53.247Z,1025.1
2018-05-04T05:36:02.075Z,1025.09
2018-05-04T05:37:11.056Z,1025.07
2018-05-04T05:38:19.891Z,1025.1
2018-05-04T05:39:29.000Z,1025.1
2018-05-04T05:40:37.833Z,1025.12
2018-05-04T05:41:46.665Z,1025.11
2018-05-04T05:42:55.873Z,1025.12
2018-05-04T05:44:04.985Z,1025.11
2018-05-04T05:45:13.811Z,1025.09
2018-05-04T05:46:22.641Z,1025.15
2018-05-04T05:47:31.759Z,1025.17
2018-05-04T05:48:40.842Z,1025.17
2018-05-04T05:49:49.672Z,1025.12
2018-05-04T05:50:58.502Z,1025.15
2018-05-04T05:52:07.334Z,1025.15
2018-05-04T05:53:16.170Z,1025.15
2018-05-04T05:54:25.101Z,1025.17
2018-05-04T05:55:33.933Z,1025.19
2018-05-04T05:56:43.328Z,1025.18
2018-05-04T05:57:52.162Z,1025.14
2018-05-04T05:59:01.579Z,1025.18
2018-05-04T06:00:10.411Z,1025.16
2018-05-04T06:01:19.242Z,1025.14
2018-05-04T06:02:28.364Z,1025.2
2018-05-04T06:03:37.196Z,1025.12
2018-05-04T06:04:46.029Z,1025.11
2018-05-04T06:05:55.139Z,1025.12
2018-05-04T06:07:03.973Z,1025.15
2018-05-04T06:08:12.808Z,1025.14
2018-05-04T06:09:21.705Z,1025.08
2018-05-04T06:10:31.193Z,1025.04
2018-05-04T06:11:40.023Z,1024.97
2018-05-04T06:12:49.129Z,1025.04
2018-05-04T06:13:57.964Z,1025.09
2018-05-04T06:15:06.871Z,1025.13
2018-05-04T06:16:16.263Z,1025.18
2018-05-04T06:17:25.094Z,1025.17
2018-05-04T06:18:33.930Z,1025.14
2018-05-04T06:19:42.762Z,1025.11
2018-05-04T06:20:51.591Z,1025.1
2018-05-04T06:22:00.423Z,1025.09
2018-05-04T06:23:09.255Z,1025.09
2018-05-04T06:24:18.089Z,1025.11
2018-05-04T06:25:27.204Z,1025.08
2018-05-04T06:26:36.036Z,1025.02
2018-05-04T06:27:45.144Z,1025.03
2018-05-04T06:28:54.254Z,1024.97
2018-05-04T06:30:03.086Z,1025
2018-05-04T06:31:12.120Z,1025
2018-05-04T06:32:20.950Z,1025
2018-05-04T06:33:29.789Z,1024.95
2018-05-04T06:34:38.620Z,1024.94
2018-05-04T06:35:47.728Z,1024.91
2018-05-04T06:36:57.089Z,1024.95
2018-05-04T06:38:06.203Z,1024.96
2018-05-04T06:39:15.137Z,1024.97
2018-05-04T06:40:24.319Z,1025.01
2018-05-04T06:41:33.636Z,1025.02
2018-05-04T06:42:42.667Z,1025.02
2018-05-04T06:43:51.504Z,1025.08
2018-05-04T06:45:00.333Z,1025.07
2018-05-04T06:46:09.174Z,1025.07
2018-05-04T06:47:18.004Z,1025.08
2018-05-04T06:48:27.089Z,1025.07
2018-05-04T06:49:35.923Z,1025.02
2018-05-04T06:50:44.753Z,1025.02
2018-05-04T06:51:53.589Z,1025.06
2018-05-04T06:53:02.701Z,1025.1
2018-05-04T06:54:11.935Z,1025.06
2018-05-04T06:55:21.041Z,1025.05
2018-05-04T06:56:29.875Z,1025.04
2018-05-04T06:57:38.708Z,1025.05
2018-05-04T06:58:47.541Z,1025.05
2018-05-04T06:59:56.527Z,1025.06
2018-05-04T07:01:05.361Z,1025.07
2018-05-04T07:02:14.468Z,1025.09
2018-05-04T07:03:23.308Z,1025.06
2018-05-04T07:04:32.140Z,1025.01
2018-05-04T07:05:40.973Z,1025.01
2018-05-04T07:06:49.807Z,1024.99
2018-05-04T07:07:58.640Z,1025.03
2018-05-04T07:09:07.748Z,1025.03
2018-05-04T07:10:16.580Z,1025.06
2018-05-04T07:11:25.466Z,1025.13
2018-05-04T07:12:34.300Z,1025.13
2018-05-04T07:13:43.413Z,1025.16
2018-05-04T07:14:52.249Z,1025.21
2018-05-04T07:16:01.082Z,1025.17
2018-05-04T07:17:09.966Z,1025.13
2018-05-04T07:18:18.800Z,1025.13
2018-05-04T07:19:27.633Z,1025.17
2018-05-04T07:20:36.468Z,1025.16
2018-05-04T07:21:45.302Z,1025.14
2018-05-04T07:22:54.135Z,1025.12
2018-05-04T07:24:03.254Z,1025.09
2018-05-04T07:25:12.364Z,1025.11
2018-05-04T07:26:21.473Z,1025.15
2018-05-04T07:27:30.305Z,1025.18
2018-05-04T07:28:39.191Z,1025.18
2018-05-04T07:29:48.701Z,1025.22
2018-05-04T07:30:57.809Z,1025.19
2018-05-04T07:32:06.918Z,1025.19
2018-05-04T07:33:15.753Z,1025.16
2018-05-04T07:34:24.938Z,1025.16
2018-05-04T07:35:34.046Z,1025.15
2018-05-04T07:36:43.160Z,1025.12
2018-05-04T07:37:51.997Z,1025.16
2018-05-04T07:39:00.877Z,1025.12
2018-05-04T07:40:09.814Z,1025.15
2018-05-04T07:41:18.649Z,1025.14
2018-05-04T07:42:27.482Z,1025.17
2018-05-04T07:43:36.316Z,1025.13
2018-05-04T07:44:45.152Z,1025.12
2018-05-04T07:45:53.997Z,1025.16
2018-05-04T07:47:02.820Z,1025.11
2018-05-04T07:48:11.930Z,1025.12
2018-05-04T07:49:21.055Z,1025.06
2018-05-04T07:50:30.169Z,1025.09
2018-05-04T07:51:39.267Z,1025.04
2018-05-04T07:52:48.560Z,1025.06
2018-05-04T07:53:57.726Z,1025.03
2018-05-04T07:55:06.724Z,1025.05
2018-05-04T07:56:16.563Z,1025.05
2018-05-04T07:59:04.405Z,1025.07
2018-05-04T08:00:13.312Z,1025.05
2018-05-04T08:01:22.445Z,1025.09
2018-05-04T08:02:31.806Z,1025.06
2018-05-04T08:03:40.921Z,1025.07
2018-05-04T08:04:49.802Z,1025.08
2018-05-04T08:05:58.899Z,1025.11
2018-05-04T08:07:07.972Z,1025.09
2018-05-04T08:08:17.641Z,1025.09
2018-05-04T08:09:27.136Z,1025.08
2018-05-04T08:10:36.488Z,1025.1
2018-05-04T08:11:46.101Z,1025.07
2018-05-04T08:12:55.440Z,1025.1
2018-05-04T08:14:04.603Z,1025.11
2018-05-04T08:15:14.364Z,1025.14
2018-05-04T08:16:23.870Z,1025.15
2018-05-04T08:17:32.800Z,1025.13
2018-05-04T08:18:42.356Z,1025.13
2018-05-04T08:19:51.190Z,1025.14
2018-05-04T08:21:00.929Z,1025.18
2018-05-04T08:22:09.762Z,1025.16
2018-05-04T08:23:18.597Z,1025.2
2018-05-04T08:24:27.438Z,1025.16
2018-05-04T08:25:36.275Z,1025.19
2018-05-04T08:26:45.242Z,1025.2
2018-05-04T08:27:54.080Z,1025.19
2018-05-04T08:29:02.915Z,1025.2
2018-05-04T08:30:11.755Z,1025.19
2018-05-04T08:31:20.586Z,1025.21
2018-05-04T08:32:29.469Z,1025.23
2018-05-04T08:33:38.310Z,1025.27
2018-05-04T08:34:47.138Z,1025.31
2018-05-04T08:35:56.249Z,1025.33
2018-05-04T08:37:05.085Z,1025.3
2018-05-04T08:38:14.073Z,1025.29
2018-05-04T08:39:22.911Z,1025.36
2018-05-04T08:40:31.885Z,1025.34
2018-05-04T08:41:41.285Z,1025.33
2018-05-04T08:42:50.218Z,1025.33
2018-05-04T08:44:00.041Z,1025.27
2018-05-04T08:45:09.155Z,1025.31
2018-05-04T08:46:17.991Z,1025.28
2018-05-04T08:47:27.119Z,1025.3
2018-05-04T08:48:35.944Z,1025.25
2018-05-04T08:49:44.925Z,1025.32
2018-05-04T08:50:53.855Z,1025.37
2018-05-04T08:52:02.596Z,1025.33
2018-05-04T08:53:11.432Z,1025.41
2018-05-04T08:54:20.292Z,1025.39
2018-05-04T08:55:29.582Z,1025.35
2018-05-04T08:56:38.444Z,1025.4
2018-05-04T08:57:47.836Z,1025.38
2018-05-04T08:58:56.671Z,1025.39
2018-05-04T09:00:05.784Z,1025.38
2018-05-04T09:01:14.770Z,1025.34
2018-05-04T09:02:23.982Z,1025.37
2018-05-04T09:03:33.331Z,1025.35
2018-05-04T09:04:42.399Z,1025.35
2018-05-04T09:05:51.240Z,1025.37
2018-05-04T09:07:00.323Z,1025.36
2018-05-04T09:08:09.157Z,1025.29
2018-05-04T09:09:17.998Z,1025.3
2018-05-04T09:10:26.872Z,1025.32
2018-05-04T09:11:35.708Z,1025.32
2018-05-04T09:12:44.952Z,1025.28
2018-05-04T09:13:53.743Z,1025.32
2018-05-04T09:15:02.853Z,1025.31
2018-05-04T09:16:12.243Z,1025.32
2018-05-04T09:17:21.162Z,1025.27
2018-05-04T09:18:30.040Z,1025.26
2018-05-04T09:19:39.431Z,1025.31
2018-05-04T09:20:48.621Z,1025.34
2018-05-04T09:21:57.458Z,1025.3
2018-05-04T09:23:06.572Z,1025.31
2018-05-04T09:24:15.916Z,1025.33
2018-05-04T09:25:25.083Z,1025.35
2018-05-04T09:26:33.864Z,1025.39
2018-05-04T09:27:43.250Z,1025.39
2018-05-04T09:28:52.086Z,1025.49
2018-05-04T09:30:01.170Z,1025.45
2018-05-04T09:31:10.008Z,1025.4
2018-05-04T09:32:18.849Z,1025.41
2018-05-04T09:33:27.959Z,1025.42
2018-05-04T09:34:37.075Z,1025.41
2018-05-04T09:35:45.911Z,1025.4
2018-05-04T09:36:54.748Z,1025.39
2018-05-04T09:38:03.584Z,1025.39
2018-05-04T09:39:12.709Z,1025.4
2018-05-04T09:40:21.537Z,1025.34
2018-05-04T09:41:30.523Z,1025.39
2018-05-04T09:42:39.360Z,1025.36
2018-05-04T09:43:48.250Z,1025.35
2018-05-04T09:44:57.464Z,1025.38
2018-05-04T09:46:06.301Z,1025.39
2018-05-04T09:47:15.243Z,1025.37
2018-05-04T09:48:24.081Z,1025.33
2018-05-04T09:49:32.923Z,1025.34
2018-05-04T09:50:41.766Z,1025.33
2018-05-04T09:51:50.878Z,1025.37
2018-05-04T09:52:59.863Z,1025.38
2018-05-04T09:54:08.699Z,1025.39
2018-05-04T09:55:17.535Z,1025.35
2018-05-04T09:56:26.372Z,1025.39
2018-05-04T09:57:35.483Z,1025.38
2018-05-04T09:58:44.371Z,1025.38
2018-05-04T09:59:53.491Z,1025.37
2018-05-04T10:01:02.331Z,1025.39
2018-05-04T10:02:11.161Z,1025.38
2018-05-04T10:03:20.054Z,1025.35
2018-05-04T10:04:28.902Z,1025.38
2018-05-04T10:05:38.288Z,1025.38
2018-05-04T10:06:47.127Z,1025.38
2018-05-04T10:07:55.961Z,1025.39
2018-05-04T10:09:04.841Z,1025.38
2018-05-04T10:10:14.109Z,1025.38
2018-05-04T10:11:22.945Z,1025.4
2018-05-04T10:12:31.786Z,1025.41
2018-05-04T10:13:40.617Z,1025.39
2018-05-04T10:14:49.453Z,1025.39
2018-05-04T10:15:58.422Z,1025.42
2018-05-04T10:17:07.906Z,1025.37
2018-05-04T10:18:17.016Z,1025.4
2018-05-04T10:19:25.861Z,1025.43
2018-05-04T10:20:34.694Z,1025.44
2018-05-04T10:21:43.530Z,1025.45
2018-05-04T10:22:52.724Z,1025.44
2018-05-04T10:24:01.564Z,1025.41
2018-05-04T10:25:10.401Z,1025.48
2018-05-04T10:26:19.797Z,1025.46
2018-05-04T10:27:28.735Z,1025.48
2018-05-04T10:28:37.572Z,1025.45
2018-05-04T10:29:46.687Z,1025.44
2018-05-04T10:30:55.604Z,1025.47
2018-05-04T10:32:04.363Z,1025.44
2018-05-04T10:33:13.199Z,1025.39
2018-05-04T10:34:22.038Z,1025.42
2018-05-04T10:35:30.877Z,1025.43
2018-05-04T10:36:39.765Z,1025.39
2018-05-04T10:37:48.880Z,1025.42
2018-05-04T10:38:57.840Z,1025.4
2018-05-04T10:40:07.002Z,1025.39
2018-05-04T10:41:15.838Z,1025.42
2018-05-04T10:42:24.680Z,1025.35
2018-05-04T10:43:34.067Z,1025.33
2018-05-04T10:44:43.057Z,1025.36
2018-05-04T10:45:52.170Z,1025.31
2018-05-04T10:47:01.008Z,1025.32
2018-05-04T10:48:09.844Z,1025.35
2018-05-04T10:49:18.681Z,1025.35
2018-05-04T10:50:27.568Z,1025.36
2018-05-04T10:51:36.406Z,1025.36
2018-05-04T10:52:45.517Z,1025.34
2018-05-04T10:53:54.631Z,1025.38
2018-05-04T10:55:03.748Z,1025.38
2018-05-04T10:56:12.744Z,1025.35
2018-05-04T10:57:21.583Z,1025.33
2018-05-04T10:58:30.694Z,1025.36
2018-05-04T10:59:39.532Z,1025.32
2018-05-04T11:00:48.652Z,1025.37
2018-05-04T11:01:57.733Z,1025.44
2018-05-04T11:03:06.572Z,1025.39
2018-05-04T11:04:15.695Z,1025.41
2018-05-04T11:05:25.447Z,1025.35
2018-05-04T11:06:34.576Z,1025.29
2018-05-04T11:07:43.464Z,1025.3
2018-05-04T11:08:52.307Z,1025.27
2018-05-04T11:10:01.418Z,1025.3
2018-05-04T11:11:10.256Z,1025.28
2018-05-04T11:12:19.100Z,1025.37
2018-05-04T11:13:28.083Z,1025.36
2018-05-04T11:14:37.221Z,1025.35
2018-05-04T11:15:46.057Z,1025.28
2018-05-04T11:16:54.894Z,1025.29
2018-05-04T11:18:03.731Z,1025.27
2018-05-04T11:19:12.672Z,1025.27
2018-05-04T11:20:21.511Z,1025.27
2018-05-04T11:21:30.347Z,1025.27
2018-05-04T11:22:39.187Z,1025.23
2018-05-04T11:23:48.017Z,1025.21
2018-05-04T11:24:57.758Z,1025.26
2018-05-04T11:26:06.592Z,1025.24
2018-05-04T11:27:15.709Z,1025.25
2018-05-04T11:28:24.540Z,1025.33
2018-05-04T11:29:33.376Z,1025.31
2018-05-04T11:30:42.463Z,1025.33
2018-05-04T11:31:51.980Z,1025.33
2018-05-04T11:33:00.808Z,1025.34
2018-05-04T11:34:09.643Z,1025.32
2018-05-04T11:35:18.481Z,1025.32
2018-05-04T11:36:28.092Z,1025.31
2018-05-04T11:37:36.931Z,1025.36
2018-05-04T11:38:45.773Z,1025.38
2018-05-04T11:39:54.608Z,1025.34
2018-05-04T11:41:03.447Z,1025.36
2018-05-04T11:42:12.436Z,1025.35
2018-05-04T11:43:21.279Z,1025.36
2018-05-04T11:44:30.119Z,1025.32
2018-05-04T11:45:39.526Z,1025.36
2018-05-04T11:46:48.363Z,1025.34
2018-05-04T11:47:57.350Z,1025.39
2018-05-04T11:49:06.192Z,1025.41
2018-05-04T11:50:15.306Z,1025.36
2018-05-04T11:51:24.143Z,1025.4
2018-05-04T11:52:32.983Z,1025.41
2018-05-04T11:53:41.920Z,1025.37
2018-05-04T11:54:51.040Z,1025.38
2018-05-04T11:55:59.874Z,1025.32
2018-05-04T11:57:08.714Z,1025.38
2018-05-04T11:58:17.551Z,1025.4
2018-05-04T11:59:26.543Z,1025.4
2018-05-04T12:00:35.388Z,1025.37
2018-05-04T12:01:44.227Z,1025.41
2018-05-04T12:02:53.068Z,1025.4
2018-05-04T12:04:02.183Z,1025.41
2018-05-04T12:05:11.842Z,1025.44
2018-05-04T12:06:21.468Z,1025.37
2018-05-04T12:07:30.926Z,1025.36
2018-05-04T12:08:39.908Z,1025.35
2018-05-04T12:09:49.150Z,1025.36
2018-05-04T12:10:58.641Z,1025.36
2018-05-04T12:12:07.661Z,1025.38
2018-05-04T12:13:16.504Z,1025.4
2018-05-04T12:14:25.351Z,1025.43
2018-05-04T12:15:34.193Z,1025.4
2018-05-04T12:16:43.168Z,1025.46
2018-05-04T12:17:51.931Z,1025.46
2018-05-04T12:19:00.777Z,1025.41
2018-05-04T12:20:09.624Z,1025.36
2018-05-04T12:21:18.468Z,1025.43
2018-05-04T12:22:27.664Z,1025.43
2018-05-04T12:23:36.511Z,1025.47
2018-05-04T12:24:45.356Z,1025.52
2018-05-04T12:25:54.203Z,1025.49
2018-05-04T12:27:03.053Z,1025.44
2018-05-04T12:28:12.231Z,1025.44
2018-05-04T12:29:21.353Z,1025.41
2018-05-04T12:30:30.302Z,1025.48
2018-05-04T12:31:39.365Z,1025.5
2018-05-04T12:32:48.203Z,1025.46
2018-05-04T12:33:57.442Z,1025.5
2018-05-04T12:35:06.288Z,1025.52
2018-05-04T12:36:15.408Z,1025.51
2018-05-04T12:37:24.460Z,1025.49
2018-05-04T12:38:33.380Z,1025.43
2018-05-04T12:39:42.155Z,1025.42
2018-05-04T12:40:51.558Z,1025.46
2018-05-04T12:42:00.404Z,1025.46
2018-05-04T12:43:09.252Z,1025.45
2018-05-04T12:44:18.377Z,1025.46
2018-05-04T12:45:27.620Z,1025.52
2018-05-04T12:46:36.743Z,1025.55
2018-05-04T12:47:45.591Z,1025.54
2018-05-04T12:48:54.448Z,1025.53
2018-05-04T12:50:03.579Z,1025.57
2018-05-04T12:51:12.427Z,1025.59
2018-05-04T12:52:21.277Z,1025.62
2018-05-04T12:53:30.162Z,1025.58
2018-05-04T12:54:40.161Z,1025.53
2018-05-04T12:55:48.985Z,1025.56
2018-05-04T12:56:58.216Z,1025.54
2018-05-04T12:58:07.068Z,1025.56
2018-05-04T12:59:15.917Z,1025.55
2018-05-04T13:00:24.767Z,1025.57
2018-05-04T13:01:33.890Z,1025.57
2018-05-04T13:02:42.738Z,1025.57
2018-05-04T13:03:51.588Z,1025.56
2018-05-04T13:05:00.446Z,1025.56
2018-05-04T13:06:09.301Z,1025.53
2018-05-04T13:07:18.167Z,1025.55
2018-05-04T13:08:27.016Z,1025.55
2018-05-04T13:09:35.865Z,1025.53
2018-05-04T13:10:44.994Z,1025.57
2018-05-04T13:11:53.844Z,1025.56
2018-05-04T13:13:02.694Z,1025.63
2018-05-04T13:14:11.896Z,1025.63
2018-05-04T13:15:20.746Z,1025.63
2018-05-04T13:16:29.598Z,1025.55
2018-05-04T13:17:38.454Z,1025.48
2018-05-04T13:18:47.591Z,1025.5
2018-05-04T13:19:57.066Z,1025.46
2018-05-04T13:21:06.270Z,1025.51
2018-05-04T13:22:15.449Z,1025.48
2018-05-04T13:23:24.332Z,1025.52
2018-05-04T13:24:33.152Z,1025.47
2018-05-04T13:25:42.006Z,1025.49
2018-05-04T13:26:50.859Z,1025.46
2018-05-04T13:27:59.721Z,1025.47
2018-05-04T13:29:08.574Z,1025.47
2018-05-04T13:30:17.426Z,1025.45
2018-05-04T13:31:26.378Z,1025.5
2018-05-04T13:32:35.229Z,1025.54
2018-05-04T13:33:44.408Z,1025.53
2018-05-04T13:34:53.259Z,1025.53
2018-05-04T13:36:02.387Z,1025.55
2018-05-04T13:37:11.241Z,1025.63
2018-05-04T13:38:20.099Z,1025.67
2018-05-04T13:39:28.949Z,1025.71
2018-05-04T13:40:37.799Z,1025.67
2018-05-04T13:41:46.657Z,1025.75
2018-05-04T13:42:55.509Z,1025.63
2018-05-04T13:44:04.361Z,1025.7
2018-05-04T13:45:13.214Z,1025.75
2018-05-04T13:46:22.164Z,1025.77
2018-05-04T13:47:31.019Z,1025.76
2018-05-04T13:48:40.827Z,1025.81
2018-05-04T13:49:50.079Z,1025.84
2018-05-04T13:50:59.411Z,1025.76
2018-05-04T13:52:11.390Z,1025.79
2018-05-04T13:53:24.664Z,1025.87
2018-05-04T13:54:37.468Z,1025.97
2018-05-04T13:55:49.797Z,1025.92
2018-05-04T13:57:02.796Z,1026.17
2018-05-04T13:58:15.082Z,1026.47
2018-05-04T13:59:28.389Z,1026.82